Time;durP1;ratioP1;P1;durP2;ratioP2;P2;SDS_P1;SDS_P2;PMS_P1;PMS_P2;Temp;Humidity;BMP_temperature;BMP_pressure;BME280_temperature;BME280_humidity;BME280_pressure;Samples;Min_cycle;Max_cycle;Signal;HPM_P1;HPM_P2
2023/12/21 00:01:45;;;;;;;10.83;3.50;;;8.90;99.90;;;;;;4884797;29;20055;-92
2023/12/21 00:04:17;;;;;;;16.23;4.18;;;8.30;99.90;;;;;;4915845;29;20139;-92
2023/12/21 00:09:14;;;;;;;14.60;5.17;;;8.80;99.90;;;;;;4922579;23;20059;-92
2023/12/21 00:11:51;;;;;;;13.90;3.70;;;8.90;99.90;;;;;;4902355;29;20060;-92
2023/12/21 00:15:08;;;;;;;15.47;3.90;;;8.80;99.90;;;;;;4876581;29;20053;-93
2023/12/21 00:17:34;;;;;;;13.33;3.73;;;9.60;99.90;;;;;;4864113;29;20053;-91
2023/12/21 00:20:14;;;;;;;17.20;4.00;;;9.90;99.90;;;;;;4859606;29;20102;-92
2023/12/21 00:22:46;;;;;;;15.07;4.07;;;9.80;99.90;;;;;;4849356;29;20102;-90
2023/12/21 00:25:16;;;;;;;15.77;4.67;;;8.80;99.90;;;;;;4847010;29;20056;-92
2023/12/21 00:30:42;;;;;;;16.50;4.25;;;8.80;99.90;;;;;;4942801;23;20056;-92
2023/12/21 00:33:14;;;;;;;17.13;4.70;;;9.30;99.90;;;;;;4811207;29;20141;-91
2023/12/21 00:35:48;;;;;;;13.43;4.13;;;8.80;99.90;;;;;;4809032;29;20050;-92
2023/12/21 00:38:31;;;;;;;19.00;4.53;;;9.20;99.90;;;;;;4807344;29;20053;-90
2023/12/21 00:40:59;;;;;;;16.17;4.30;;;10.10;99.90;;;;;;4902179;23;20072;-90
2023/12/21 00:43:25;;;;;;;14.60;4.40;;;9.90;99.90;;;;;;4897803;29;20116;-92
2023/12/21 00:46:09;;;;;;;16.70;5.10;;;9.80;99.90;;;;;;4883878;29;20056;-92
2023/12/21 00:48:40;;;;;;;;;;;10.50;99.90;;;;;;4883574;29;20140;-92
2023/12/21 00:51:08;;;;;;;17.07;4.13;;;10.50;99.90;;;;;;4883989;29;19930;-91
2023/12/21 00:53:34;;;;;;;19.43;5.03;;;8.80;99.90;;;;;;4893873;23;20055;-92
2023/12/21 00:56:09;;;;;;;12.67;4.17;;;10.20;99.90;;;;;;4906572;23;20048;-93
2023/12/21 00:58:59;;;;;;;17.03;4.60;;;10.00;99.90;;;;;;4884625;29;20060;-91
2023/12/21 01:01:26;;;;;;;17.47;4.67;;;8.90;99.90;;;;;;4884808;29;20044;-92
2023/12/21 01:04:12;;;;;;;15.80;4.57;;;9.00;99.90;;;;;;4884660;29;20124;-93
2023/12/21 01:06:47;;;;;;;14.30;4.20;;;9.00;99.90;;;;;;4873181;29;20045;-92
2023/12/21 01:09:13;;;;;;;17.70;4.73;;;10.00;99.90;;;;;;4883640;29;20489;-93
2023/12/21 01:11:50;;;;;;;20.40;4.90;;;9.00;99.90;;;;;;4988917;23;20052;-92
2023/12/21 01:14:15;;;;;;;18.83;4.60;;;10.40;99.90;;;;;;4904058;29;20051;-92
2023/12/21 01:16:44;;;;;;;16.40;5.97;;;9.00;99.90;;;;;;4911938;29;20036;-92
2023/12/21 01:19:18;;;;;;;17.37;4.60;;;10.30;99.90;;;;;;4929439;23;20059;-91
2023/12/21 01:21:49;;;;;;;18.17;5.07;;;9.00;99.90;;;;;;4907888;29;20029;-92
2023/12/21 01:24:58;;;;;;;14.80;4.13;;;9.00;99.90;;;;;;4892765;29;20045;-92
2023/12/21 01:27:45;;;;;;;18.27;5.63;;;9.00;99.90;;;;;;4899271;29;20107;-93
2023/12/21 01:30:21;;;;;;;15.90;5.40;;;8.90;99.90;;;;;;4862249;29;20072;-93
2023/12/21 01:32:47;;;;;;;19.63;4.80;;;8.90;99.90;;;;;;4883321;29;20135;-93
2023/12/21 01:35:13;;;;;;;14.17;4.70;;;10.30;99.90;;;;;;4883804;29;20556;-91
2023/12/21 01:37:46;;;;;;;17.80;4.75;;;8.90;99.90;;;;;;4883958;29;20120;-93
2023/12/21 01:40:23;;;;;;;16.55;5.13;;;8.90;99.90;;;;;;4900852;29;20072;-92
2023/12/21 01:42:49;;;;;;;19.03;4.97;;;8.90;99.90;;;;;;4884061;29;20048;-92
2023/12/21 01:45:26;;;;;;;15.93;5.30;;;9.90;99.90;;;;;;4881825;29;20051;-93
2023/12/21 01:47:52;;;;;;;20.20;4.90;;;10.50;99.90;;;;;;4911282;23;20211;-92
2023/12/21 01:50:33;;;;;;;18.33;4.53;;;9.00;99.90;;;;;;4898610;29;20548;-92
2023/12/21 01:53:15;;;;;;;;;;;;;;;;;;;;;
2023/12/21 01:56:20;;;;;;;16.88;4.65;;;8.90;99.90;;;;;;4855446;29;20057;-93
2023/12/21 01:58:49;;;;;;;14.77;4.43;;;7.50;99.90;;;;;;4882310;29;20112;-91
2023/12/21 02:01:48;;;;;;;16.48;4.50;;;9.80;99.90;;;;;;4882144;29;20040;-93
2023/12/21 02:04:17;;;;;;;21.60;4.97;;;9.40;99.90;;;;;;4891914;23;20056;-92
2023/12/21 02:06:58;;;;;;;13.30;4.28;;;9.00;99.90;;;;;;4938077;23;20496;-92
2023/12/21 02:09:49;;;;;;;17.20;4.85;;;9.30;99.90;;;;;;4919940;29;20052;-92
2023/12/21 02:13:01;;;;;;;;;;;;;;;;;;;;;
2023/12/21 02:16:53;;;;;;;15.00;4.30;;;8.40;99.90;;;;;;4860496;29;20040;-92
2023/12/21 02:19:22;;;;;;;16.48;4.68;;;8.90;99.90;;;;;;4772702;29;20059;-92
2023/12/21 02:21:50;;;;;;;20.33;4.60;;;9.00;99.90;;;;;;4825694;29;20061;-92
2023/12/21 02:24:17;;;;;;;16.77;4.70;;;9.00;99.90;;;;;;4874416;29;20067;-91
2023/12/21 02:29:20;;;;;;;16.80;5.03;;;9.00;99.90;;;;;;4922059;23;20056;-92
2023/12/21 02:31:54;;;;;;;17.77;4.37;;;9.70;99.90;;;;;;4915440;23;20070;-92
2023/12/21 02:34:20;;;;;;;17.20;4.20;;;10.40;99.90;;;;;;4916144;29;20404;-92
2023/12/21 02:36:53;;;;;;;19.73;4.23;;;10.30;99.90;;;;;;4901449;29;20569;-93
2023/12/21 02:40:10;;;;;;;15.02;4.28;;;10.50;99.90;;;;;;4905361;23;20060;-94
2023/12/21 02:42:47;;;;;;;16.38;4.65;;;8.90;99.90;;;;;;4845769;29;20067;-92
2023/12/21 02:45:25;;;;;;;19.37;4.50;;;9.00;99.90;;;;;;4882497;29;20064;-92
2023/12/21 02:48:06;;;;;;;18.10;4.35;;;10.00;99.90;;;;;;4885667;29;20421;-94
2023/12/21 02:50:39;;;;;;;15.77;4.18;;;8.90;99.90;;;;;;4916936;23;20199;-91
2023/12/21 02:53:43;;;;;;;15.23;4.63;;;8.50;99.90;;;;;;4900456;29;20135;-93
2023/12/21 02:56:17;;;;;;;15.10;4.70;;;9.30;99.90;;;;;;4909730;23;20069;-92
2023/12/21 03:06:04;;;;;;;16.10;4.13;;;8.60;99.90;;;;;;4946974;23;20154;-93
2023/12/21 03:08:35;;;;;;;17.23;4.28;;;8.70;99.90;;;;;;4929492;23;20068;-93
2023/12/21 03:11:22;;;;;;;17.43;3.87;;;8.70;99.90;;;;;;4897314;23;20059;-94
2023/12/21 03:13:53;;;;;;;14.75;3.75;;;8.80;99.90;;;;;;4894759;29;20057;-92
2023/12/21 03:16:31;;;;;;;;;;;;;;;;;;;;;
2023/12/21 03:19:27;;;;;;;17.30;4.20;;;10.30;99.90;;;;;;4878956;29;20075;-92
2023/12/21 03:22:07;;;;;;;21.20;4.35;;;8.80;99.90;;;;;;4881053;29;20048;-92
2023/12/21 03:25:14;;;;;;;15.10;4.63;;;9.80;99.90;;;;;;4909843;23;20055;-93
2023/12/21 03:34:54;;;;;;;17.38;4.43;;;9.60;99.90;;;;;;4901283;29;20048;-94
2023/12/21 03:37:38;;;;;;;;;;;;;;;;;;;;;
2023/12/21 03:47:09;;;;;;;12.05;4.43;;;9.90;99.90;;;;;;4928580;29;20072;-93
2023/12/21 03:50:27;;;;;;;16.13;5.25;;;8.90;99.90;;;;;;5139280;23;20103;-92
2023/12/21 03:52:55;;;;;;;16.40;4.95;;;8.10;99.90;;;;;;4899903;29;20055;-93
2023/12/21 03:55:27;;;;;;;15.43;4.72;;;9.60;99.90;;;;;;4900395;29;20431;-94
2023/12/21 03:58:30;;;;;;;14.90;5.65;;;8.90;99.90;;;;;;4899820;29;20051;-92
2023/12/21 04:01:09;;;;;;;15.90;4.35;;;8.30;99.90;;;;;;4900055;29;20062;-93
2023/12/21 04:06:45;;;;;;;18.65;5.80;;;8.80;99.90;;;;;;4864784;29;20056;-94
2023/12/21 04:09:32;;;;;;;14.77;5.10;;;10.40;99.90;;;;;;4880771;29;20064;-92
2023/12/21 04:12:07;;;;;;;;;;;;;;;;;;;;;
2023/12/21 04:21:16;;;;;;;13.85;5.72;;;8.90;99.90;;;;;;4932010;23;20060;-93
2023/12/21 04:26:53;;;;;;;17.70;6.22;;;8.90;99.90;;;;;;5105979;23;20080;-95
2023/12/21 04:29:34;;;;;;;;;;;;;;;;;;;;;
2023/12/21 04:35:48;;;;;;;;;;;9.10;99.90;;;;;;4897359;29;20064;-93
2023/12/21 04:38:45;;;;;;;16.27;5.60;;;8.30;99.90;;;;;;4886384;23;20063;-93
2023/12/21 04:44:55;;;;;;;14.93;5.32;;;8.70;99.90;;;;;;4884480;29;20094;-92
2023/12/21 04:47:27;;;;;;;14.30;5.22;;;8.20;99.90;;;;;;4846695;29;20495;-93
2023/12/21 04:50:03;;;;;;;12.90;4.88;;;8.90;99.90;;;;;;4922859;23;20064;-92
2023/12/21 04:52:41;;;;;;;15.60;5.38;;;8.90;99.90;;;;;;4885412;29;20058;-93
2023/12/21 04:55:39;;;;;;;15.85;5.95;;;9.40;99.90;;;;;;4883981;29;20048;-94
2023/12/21 04:59:17;;;;;;;14.18;5.25;;;8.80;99.90;;;;;;4843998;23;20107;-93
2023/12/21 05:06:16;;;;;;;;;;;;;;;;;;;;;
2023/12/21 06:27:34;;;;;;;10.75;3.40;;;8.90;99.90;;;;;;4904004;29;20052;-92
2023/12/21 06:30:46;;;;;;;19.77;4.27;;;9.50;99.90;;;;;;4886195;29;20059;-93
2023/12/21 06:33:24;;;;;;;18.77;3.63;;;8.90;99.90;;;;;;4827812;29;20054;-92
2023/12/21 06:44:12;;;;;;;12.02;3.40;;;8.80;99.90;;;;;;4926529;23;20131;-94
2023/12/21 06:47:44;;;;;;;10.03;3.20;;;9.30;99.90;;;;;;4883277;29;20084;-92
2023/12/21 06:50:39;;;;;;;12.10;3.30;;;8.30;99.90;;;;;;4882006;29;20144;-93
2023/12/21 06:56:49;;;;;;;14.13;3.00;;;10.20;99.90;;;;;;4798646;29;20056;-94
2023/12/21 07:05:21;;;;;;;11.32;3.67;;;9.30;99.90;;;;;;4808226;29;20058;-95
2023/12/21 07:08:53;;;;;;;;;;;;;;;;;;;;;
2023/12/21 07:25:15;;;;;;;10.43;2.47;;;8.20;99.90;;;;;;4880774;29;20127;-86
2023/12/21 07:27:44;;;;;;;8.27;2.33;;;10.30;99.90;;;;;;4897406;29;20059;-86
2023/12/21 07:30:19;;;;;;;9.17;2.43;;;10.70;99.90;;;;;;4880029;29;20052;-85
2023/12/21 07:32:48;;;;;;;10.27;2.70;;;10.10;99.90;;;;;;4880405;29;20056;-87
2023/12/21 07:35:15;;;;;;;8.38;2.25;;;10.60;99.90;;;;;;4876450;29;20063;-84
2023/12/21 07:37:52;;;;;;;8.67;2.50;;;9.60;99.90;;;;;;4878749;29;20530;-87
2023/12/21 07:43:02;;;;;;;7.33;2.50;;;9.10;99.90;;;;;;4982134;23;20044;-86
2023/12/21 07:45:27;;;;;;;7.17;2.20;;;9.10;99.90;;;;;;4899361;29;20408;-86
2023/12/21 07:47:55;;;;;;;8.00;2.73;;;10.30;99.90;;;;;;4899382;29;20051;-86
2023/12/21 07:50:28;;;;;;;8.33;2.10;;;9.20;99.90;;;;;;4899112;29;20192;-85
2023/12/21 07:52:57;;;;;;;8.13;3.10;;;10.20;99.90;;;;;;4899402;29;20048;-85
2023/12/21 07:55:23;;;;;;;6.75;2.30;;;10.50;99.90;;;;;;4923420;23;20654;-87
2023/12/21 07:58:01;;;;;;;6.68;1.90;;;10.50;99.90;;;;;;4899125;29;20056;-85
2023/12/21 08:00:40;;;;;;;11.03;3.03;;;9.10;99.90;;;;;;4903505;29;20054;-91
2023/12/21 08:09:20;;;;;;;10.57;4.65;;;9.10;99.90;;;;;;4896459;29;20048;-89
2023/12/21 08:12:23;;;;;;;;;;;;;;;;;;;;;
2023/12/21 08:16:17;;;;;;;14.38;8.13;;;9.80;99.90;;;;;;5195451;23;20055;-90
2023/12/21 08:26:46;;;;;;;8.00;3.15;;;10.80;99.90;;;;;;5347649;23;20116;-92
2023/12/21 08:37:43;;;;;;;9.75;3.00;;;9.20;99.90;;;;;;4968034;23;20080;-88
2023/12/21 08:40:15;;;;;;;8.87;3.87;;;9.10;99.90;;;;;;4901659;29;20052;-89
2023/12/21 08:42:42;;;;;;;9.82;4.15;;;9.20;99.90;;;;;;4902763;29;20055;-87
2023/12/21 08:48:38;;;;;;;10.83;6.70;;;9.20;99.90;;;;;;4920595;29;20039;-87
2023/12/21 08:51:16;;;;;;;11.20;4.93;;;9.30;99.90;;;;;;4919362;29;20488;-87
2023/12/21 08:53:51;;;;;;;8.87;3.30;;;10.40;99.90;;;;;;4901320;29;20115;-86
2023/12/21 08:56:23;;;;;;;14.77;9.97;;;10.80;99.90;;;;;;4918262;29;20369;-87
2023/12/21 08:59:12;;;;;;;14.07;6.93;;;10.60;99.90;;;;;;4909563;29;20076;-86
2023/12/21 09:02:14;;;;;;;11.90;7.07;;;10.80;99.90;;;;;;4897677;29;20040;-87
2023/12/21 09:04:40;;;;;;;15.37;11.23;;;10.70;99.90;;;;;;4909211;29;20056;-87
2023/12/21 09:07:29;;;;;;;12.50;5.93;;;10.60;99.90;;;;;;4917458;29;20054;-87
2023/12/21 09:09:58;;;;;;;11.33;7.73;;;9.30;99.90;;;;;;4896545;29;20052;-88
2023/12/21 09:16:19;;;;;;;10.07;2.97;;;8.50;99.90;;;;;;4897140;29;20059;-89
2023/12/21 09:18:47;;;;;;;9.02;3.03;;;9.70;99.90;;;;;;4882299;29;20510;-86
2023/12/21 09:21:15;;;;;;;9.98;3.42;;;10.80;99.90;;;;;;4881068;29;20064;-87
2023/12/21 09:23:44;;;;;;;10.10;4.33;;;9.40;99.90;;;;;;4882235;29;20052;-86
2023/12/21 09:26:17;;;;;;;13.40;6.10;;;10.90;99.90;;;;;;4882737;29;20096;-86
2023/12/21 09:28:43;;;;;;;10.65;3.45;;;10.40;99.90;;;;;;4880836;29;20052;-87
2023/12/21 09:31:12;;;;;;;11.90;4.10;;;10.60;99.90;;;;;;4881659;29;20519;-87
2023/12/21 09:33:39;;;;;;;9.70;2.90;;;8.70;99.90;;;;;;4882480;29;20462;-86
2023/12/21 09:36:15;;;;;;;10.27;3.40;;;10.50;99.90;;;;;;4882399;29;20064;-87
2023/12/21 09:39:22;;;;;;;8.67;3.13;;;9.60;99.90;;;;;;4882736;29;20052;-88
2023/12/21 09:42:03;;;;;;;12.68;4.32;;;9.70;99.90;;;;;;4882967;29;20075;-87
2023/12/21 09:44:43;;;;;;;;;;;;;;;;;;;;;
2023/12/21 09:47:19;;;;;;;10.93;2.17;;;9.50;99.90;;;;;;4874023;29;20065;-86
2023/12/21 09:50:11;;;;;;;7.80;2.30;;;10.60;99.90;;;;;;4882288;29;20041;-86
2023/12/21 09:52:38;;;;;;;8.98;2.55;;;8.40;99.90;;;;;;4871055;29;20060;-87
2023/12/21 09:55:56;;;;;;;8.02;2.40;;;11.20;99.90;;;;;;4885130;23;20136;-87
2023/12/21 09:59:06;;;;;;;9.13;2.20;;;9.20;99.90;;;;;;4862793;29;20057;-87
2023/12/21 10:01:49;;;;;;;;;;;;;;;;;;;;;
2023/12/21 10:04:33;;;;;;;7.15;2.28;;;11.10;99.90;;;;;;4826295;29;20889;-86
2023/12/21 10:07:28;;;;;;;8.87;2.10;;;9.50;99.90;;;;;;4863503;29;20053;-91
2023/12/21 10:10:00;;;;;;;8.03;2.00;;;8.90;99.90;;;;;;4806019;29;20507;-88
2023/12/21 10:13:00;;;;;;;8.63;2.23;;;10.90;99.90;;;;;;4831585;29;20106;-89
2023/12/21 10:16:03;;;;;;;6.53;1.53;;;8.70;99.90;;;;;;4859929;29;20056;-89
2023/12/21 10:24:35;;;;;;;8.07;2.13;;;9.70;99.90;;;;;;4970635;23;20055;-88
2023/12/21 10:27:32;;;;;;;13.17;2.63;;;11.00;99.90;;;;;;4872103;29;20059;-90
2023/12/21 10:33:08;;;;;;;12.77;3.00;;;11.00;99.90;;;;;;4887030;29;20063;-87
2023/12/21 10:35:35;;;;;;;11.35;2.55;;;9.90;99.90;;;;;;4863688;29;20446;-87
2023/12/21 10:38:38;;;;;;;15.35;2.70;;;11.40;99.90;;;;;;4863282;29;20104;-87
2023/12/21 10:41:05;;;;;;;12.00;2.72;;;9.10;99.90;;;;;;4879537;29;20105;-86
2023/12/21 10:43:35;;;;;;;14.25;3.28;;;10.00;99.90;;;;;;4881899;29;20084;-88
2023/12/21 10:46:03;;;;;;;12.30;2.35;;;11.20;99.90;;;;;;4880302;29;20059;-87
2023/12/21 10:48:33;;;;;;;12.23;2.40;;;9.90;99.90;;;;;;4880840;29;20077;-86
2023/12/21 10:54:22;;;;;;;10.30;2.35;;;11.60;99.90;;;;;;4898616;29;20089;-89
2023/12/21 10:57:02;;;;;;;13.63;2.40;;;9.50;99.90;;;;;;4899957;29;20044;-88
2023/12/21 10:59:34;;;;;;;13.88;2.55;;;10.50;99.90;;;;;;4899880;29;20104;-89
2023/12/21 11:02:42;;;;;;;10.57;2.15;;;11.50;99.90;;;;;;4910720;29;20088;-88
2023/12/21 11:05:26;;;;;;;9.18;2.33;;;10.30;99.90;;;;;;4896262;29;20052;-87
2023/12/21 11:07:54;;;;;;;10.25;2.17;;;9.30;99.90;;;;;;4899872;29;20087;-86
2023/12/21 11:10:33;;;;;;;;;;;;;;;;;;;;;
2023/12/21 11:13:14;;;;;;;10.10;1.90;;;11.70;99.90;;;;;;4899617;29;20071;-88
2023/12/21 11:15:41;;;;;;;10.10;2.58;;;10.30;99.90;;;;;;4899168;29;20054;-84
2023/12/21 11:18:17;;;;;;;12.27;2.25;;;11.60;99.90;;;;;;4900157;29;20048;-88
2023/12/21 11:20:52;;;;;;;9.63;2.20;;;10.00;99.90;;;;;;4900222;29;20056;-85
2023/12/21 11:23:21;;;;;;;11.27;2.10;;;9.30;99.90;;;;;;4899474;29;20052;-86
2023/12/21 11:25:55;;;;;;;10.40;2.65;;;11.00;99.90;;;;;;4899678;29;20048;-86
2023/12/21 11:28:32;;;;;;;;;;;10.00;99.90;;;;;;4900449;29;20824;-85
2023/12/21 11:30:58;;;;;;;8.77;2.20;;;9.90;99.90;;;;;;4901085;29;19934;-85
2023/12/21 11:33:28;;;;;;;9.23;1.73;;;11.30;99.90;;;;;;4898860;29;20048;-85
2023/12/21 11:36:11;;;;;;;17.38;2.47;;;10.00;99.90;;;;;;4898641;29;20484;-84
2023/12/21 11:38:57;;;;;;;10.63;2.40;;;10.50;99.90;;;;;;4895383;29;20056;-85
2023/12/21 11:41:58;;;;;;;13.57;2.63;;;11.20;99.90;;;;;;4880790;29;20048;-89
2023/12/21 11:44:39;;;;;;;14.60;2.10;;;9.90;99.90;;;;;;4879901;29;20449;-87
2023/12/21 11:47:14;;;;;;;14.50;2.67;;;11.00;99.90;;;;;;4852593;29;20052;-86
2023/12/21 11:49:43;;;;;;;13.77;2.17;;;10.70;99.90;;;;;;4898816;29;20056;-87
2023/12/21 11:59:36;;;;;;;12.50;2.88;;;10.10;99.90;;;;;;5976564;23;20086;-85
2023/12/21 12:02:06;;;;;;;14.45;3.70;;;11.00;99.90;;;;;;4905305;29;20489;-85
2023/12/21 12:04:32;;;;;;;11.80;2.50;;;11.30;99.90;;;;;;4902772;29;20059;-85
2023/12/21 12:07:03;;;;;;;18.08;2.80;;;10.60;99.90;;;;;;4896800;29;20048;-86
2023/12/21 12:09:31;;;;;;;13.60;2.40;;;10.10;99.90;;;;;;4891686;29;20056;-85
2023/12/21 12:11:58;;;;;;;14.15;2.45;;;11.00;99.90;;;;;;4882326;29;20077;-86
2023/12/21 12:14:23;;;;;;;13.60;2.85;;;10.10;99.90;;;;;;4894014;29;20047;-86
2023/12/21 12:16:49;;;;;;;14.40;2.97;;;10.10;99.90;;;;;;4900469;29;20511;-87
2023/12/21 12:19:30;;;;;;;12.65;3.78;;;10.10;99.90;;;;;;4904400;29;20218;-86
2023/12/21 12:21:56;;;;;;;15.95;3.42;;;11.70;99.90;;;;;;4904812;29;20500;-85
2023/12/21 12:24:22;;;;;;;12.38;2.63;;;10.20;99.90;;;;;;4903451;29;20071;-85
2023/12/21 12:26:48;;;;;;;18.13;3.38;;;10.20;99.90;;;;;;4905021;29;20090;-85
2023/12/21 12:32:31;;;;;;;15.05;2.95;;;11.20;99.90;;;;;;4910717;29;20054;-85
2023/12/21 12:34:57;;;;;;;12.75;2.50;;;10.20;99.90;;;;;;4892187;29;20475;-84
2023/12/21 12:37:23;;;;;;;13.57;2.75;;;11.60;99.90;;;;;;4886705;29;20046;-84
2023/12/21 12:39:51;;;;;;;18.38;3.28;;;11.20;99.90;;;;;;4902185;29;20056;-84
2023/12/21 12:42:17;;;;;;;12.32;2.33;;;11.10;99.90;;;;;;4886045;29;20500;-84
2023/12/21 12:44:44;;;;;;;14.80;3.22;;;11.70;99.90;;;;;;4885123;29;20579;-84
2023/12/21 12:47:12;;;;;;;17.27;2.88;;;10.90;99.90;;;;;;4885834;29;20048;-84
2023/12/21 12:49:41;;;;;;;12.43;3.13;;;10.70;99.90;;;;;;4903272;29;20044;-83
2023/12/21 12:52:10;;;;;;;14.82;3.10;;;10.70;99.90;;;;;;4902906;29;20408;-84
2023/12/21 12:54:36;;;;;;;17.50;2.80;;;12.00;99.90;;;;;;4885771;29;20045;-83
2023/12/21 12:57:03;;;;;;;13.63;2.75;;;10.80;99.90;;;;;;4885942;29;20063;-84
2023/12/21 12:59:35;;;;;;;16.45;3.25;;;10.80;99.90;;;;;;4885875;29;20051;-87
2023/12/21 13:02:01;;;;;;;14.05;2.72;;;10.80;99.90;;;;;;4866557;29;20056;-87
2023/12/21 13:05:23;;;;;;;14.20;2.92;;;12.00;99.90;;;;;;4865210;29;20053;-88
2023/12/21 13:07:48;;;;;;;15.85;3.05;;;10.80;99.90;;;;;;4865548;29;20049;-87
2023/12/21 13:10:17;;;;;;;13.65;2.72;;;11.50;99.90;;;;;;4863483;29;20089;-87
2023/12/21 13:12:57;;;;;;;12.23;2.33;;;10.70;99.90;;;;;;4891896;29;20045;-90
2023/12/21 13:15:23;;;;;;;15.25;2.88;;;12.00;99.90;;;;;;4882592;29;20048;-88
2023/12/21 13:18:34;;;;;;;12.38;2.72;;;12.10;99.90;;;;;;4880558;29;20753;-88
2023/12/21 13:20:40;;;;;;;13.38;2.88;;;12.00;99.90;;;;;;4867022;29;20497;-88
2023/12/21 13:23:25;;;;;;;14.88;2.70;;;11.80;99.90;;;;;;4869072;29;20049;-89
2023/12/21 13:25:56;;;;;;;16.67;3.17;;;10.60;99.90;;;;;;4876622;29;20084;-88
2023/12/21 13:29:18;;;;;;;16.00;3.33;;;10.70;99.90;;;;;;4870851;29;20041;-90
2023/12/21 13:31:57;;;;;;;15.30;2.80;;;11.00;99.90;;;;;;4877273;29;20053;-89
2023/12/21 13:34:25;;;;;;;12.27;3.00;;;9.80;99.90;;;;;;4873801;29;20041;-89
2023/12/21 13:37:19;;;;;;;14.38;2.80;;;10.60;99.90;;;;;;4872112;29;20040;-89
2023/12/21 13:40:09;;;;;;;18.33;3.28;;;10.60;99.90;;;;;;4868598;29;20577;-88
2023/12/21 13:43:19;;;;;;;12.95;3.47;;;10.00;99.90;;;;;;4870943;29;20044;-88
2023/12/21 13:46:06;;;;;;;;;;;;;;;;;;;;;
2023/12/21 13:49:16;;;;;;;13.82;3.05;;;10.90;99.90;;;;;;4865008;29;20100;-88
2023/12/21 13:51:45;;;;;;;13.32;2.42;;;9.90;99.90;;;;;;5640696;23;20032;-89
2023/12/21 13:54:18;;;;;;;15.32;2.90;;;11.40;99.90;;;;;;4876060;29;20132;-90
2023/12/21 13:56:48;;;;;;;12.48;3.25;;;10.60;99.90;;;;;;4861563;29;20048;-87
2023/12/21 14:02:55;;;;;;;20.40;3.33;;;11.30;99.90;;;;;;4907767;23;20048;-88
2023/12/21 14:05:25;;;;;;;17.67;2.50;;;12.10;99.90;;;;;;4895347;29;20485;-89
2023/12/21 14:08:04;;;;;;;;;;;;;;;;;;;;;
2023/12/21 14:16:56;;;;;;;16.33;3.00;;;10.60;99.90;;;;;;4975583;23;20535;-89
2023/12/21 14:19:28;;;;;;;12.55;3.53;;;10.90;99.90;;;;;;4892681;29;20049;-88
2023/12/21 14:22:22;;;;;;;15.35;3.33;;;11.50;99.90;;;;;;4890758;29;20108;-89
2023/12/21 14:24:47;;;;;;;22.35;3.70;;;10.60;99.90;;;;;;4886345;29;20060;-90
2023/12/21 14:27:19;;;;;;;17.33;3.67;;;10.60;99.90;;;;;;4895672;29;20039;-87
2023/12/21 14:29:57;;;;;;;15.27;3.70;;;11.30;99.90;;;;;;4890544;29;20077;-87
2023/12/21 14:32:25;;;;;;;17.77;6.65;;;10.80;99.90;;;;;;4911160;29;20127;-88
2023/12/21 14:34:54;;;;;;;29.00;10.23;;;12.10;99.90;;;;;;4910048;29;20083;-87
2023/12/21 14:37:20;;;;;;;18.27;4.30;;;12.00;99.90;;;;;;4910918;29;20039;-85
2023/12/21 14:39:54;;;;;;;12.90;2.70;;;11.60;99.90;;;;;;4912868;29;20115;-87
2023/12/21 14:42:21;;;;;;;12.10;3.20;;;7.50;99.90;;;;;;4912887;29;20056;-87
2023/12/21 14:44:55;;;;;;;11.17;3.20;;;7.60;99.90;;;;;;4910153;29;20463;-88
2023/12/21 14:47:29;;;;;;;8.90;2.70;;;5.70;99.90;;;;;;4914537;29;20134;-87
2023/12/21 14:49:57;;;;;;;12.90;2.33;;;6.80;99.90;;;;;;4922690;29;20044;-89
2023/12/21 14:52:26;;;;;;;10.37;2.57;;;5.80;99.90;;;;;;4906315;29;20047;-87
2023/12/21 14:54:54;;;;;;;10.23;1.90;;;5.20;99.90;;;;;;4914401;29;20106;-87
2023/12/21 14:57:20;;;;;;;11.57;2.03;;;4.60;99.90;;;;;;4916830;29;20055;-89
2023/12/21 14:59:48;;;;;;;12.90;3.03;;;6.50;99.90;;;;;;4912037;29;20138;-88
2023/12/21 15:02:34;;;;;;;14.87;3.53;;;5.40;99.90;;;;;;4912354;29;20536;-88
2023/12/21 15:05:03;;;;;;;11.93;2.70;;;6.70;99.90;;;;;;4924219;29;20052;-88
2023/12/21 15:07:58;;;;;;;13.10;2.30;;;5.50;99.90;;;;;;4907446;29;20048;-88
2023/12/21 15:10:26;;;;;;;17.77;2.77;;;6.50;99.90;;;;;;4905583;29;20572;-86
2023/12/21 15:12:55;;;;;;;13.73;2.60;;;5.30;99.90;;;;;;4905621;29;20085;-87
2023/12/21 15:15:20;;;;;;;17.47;2.93;;;6.10;99.90;;;;;;4910731;29;20056;-88
2023/12/21 15:18:18;;;;;;;18.10;3.00;;;6.10;99.90;;;;;;4904636;29;20051;-88
2023/12/21 15:20:44;;;;;;;14.97;2.77;;;5.70;99.90;;;;;;4909790;29;20063;-86
2023/12/21 15:23:35;;;;;;;15.87;3.30;;;5.70;99.90;;;;;;4903977;29;20408;-89
2023/12/21 15:26:35;;;;;;;18.97;4.53;;;6.00;99.90;;;;;;4905202;29;20051;-88
2023/12/21 15:29:03;;;;;;;13.97;2.53;;;6.40;99.90;;;;;;4911542;29;20497;-88
2023/12/21 15:31:47;;;;;;;11.33;2.40;;;7.30;99.90;;;;;;4915242;29;20079;-88
2023/12/21 15:34:25;;;;;;;13.67;3.10;;;7.40;99.90;;;;;;4908356;29;20083;-89
2023/12/21 15:36:53;;;;;;;15.23;2.83;;;7.10;99.90;;;;;;4907772;29;20080;-87
2023/12/21 15:39:19;;;;;;;13.77;2.73;;;7.00;99.90;;;;;;4907513;29;20044;-87
2023/12/21 15:41:46;;;;;;;16.80;2.80;;;7.30;99.90;;;;;;4905789;29;20132;-88
2023/12/21 15:44:14;;;;;;;13.50;2.53;;;6.80;99.90;;;;;;4905200;29;20477;-86
2023/12/21 15:46:40;;;;;;;13.33;2.83;;;5.00;99.90;;;;;;4905794;29;20135;-86
2023/12/21 15:52:21;;;;;;;10.33;3.60;;;5.70;99.90;;;;;;4895901;23;20135;-86
2023/12/21 15:54:59;;;;;;;13.10;2.53;;;5.00;99.90;;;;;;4865879;29;20049;-86
2023/12/21 15:57:25;;;;;;;13.10;2.83;;;6.20;99.90;;;;;;4868465;29;20481;-82
2023/12/21 15:59:51;;;;;;;12.10;2.40;;;7.30;99.90;;;;;;4870341;29;20051;-85
2023/12/21 16:02:17;;;;;;;15.10;4.43;;;6.00;99.90;;;;;;4867958;29;20046;-84
2023/12/21 16:04:42;;;;;;;17.83;2.90;;;5.90;99.90;;;;;;4869258;29;20068;-83
2023/12/21 16:07:14;;;;;;;11.47;2.10;;;5.90;99.90;;;;;;4868433;29;20439;-85
2023/12/21 16:09:39;;;;;;;11.63;2.17;;;7.40;99.90;;;;;;4862076;29;20077;-84
2023/12/21 16:12:20;;;;;;;15.23;2.63;;;5.70;99.90;;;;;;4880851;29;20068;-84
2023/12/21 16:14:55;;;;;;;11.03;2.30;;;5.30;99.90;;;;;;4869760;29;20057;-85
2023/12/21 16:17:21;;;;;;;16.43;3.70;;;5.80;99.90;;;;;;4861327;29;20527;-85
2023/12/21 16:19:47;;;;;;;12.87;2.63;;;5.80;99.90;;;;;;4862068;29;20139;-85
2023/12/21 16:22:13;;;;;;;13.23;2.40;;;5.70;99.90;;;;;;4861556;29;20593;-84
2023/12/21 16:24:41;;;;;;;17.60;2.40;;;6.70;99.90;;;;;;4861049;29;20577;-83
2023/12/21 16:27:09;;;;;;;89.17;27.07;;;5.70;99.90;;;;;;4860658;29;20144;-85
2023/12/21 16:29:38;;;;;;;51.67;14.93;;;6.80;99.90;;;;;;4862051;29;20110;-85
2023/12/21 16:32:11;;;;;;;15.40;4.03;;;5.80;99.90;;;;;;4857964;29;20510;-86
2023/12/21 16:34:40;;;;;;;13.00;2.42;;;5.20;99.90;;;;;;4843857;29;20064;-85
2023/12/21 16:37:09;;;;;;;16.40;3.20;;;5.40;99.90;;;;;;4843350;29;20045;-86
2023/12/21 16:39:35;;;;;;;11.50;3.00;;;5.70;99.90;;;;;;4862157;29;20135;-85
2023/12/21 16:42:01;;;;;;;18.17;3.07;;;5.60;99.90;;;;;;4862705;29;20049;-83
2023/12/21 16:44:27;;;;;;;19.33;3.03;;;5.60;99.90;;;;;;4864147;29;20110;-84
2023/12/21 16:46:52;;;;;;;14.30;2.83;;;5.70;99.90;;;;;;4862540;29;20057;-85
2023/12/21 16:49:18;;;;;;;19.70;3.70;;;5.70;99.90;;;;;;4861988;29;20387;-85
2023/12/21 16:51:43;;;;;;;20.27;4.30;;;5.60;99.90;;;;;;4846022;29;20057;-85
2023/12/21 16:54:19;;;;;;;18.93;3.80;;;5.60;99.90;;;;;;4864515;29;20466;-87
2023/12/21 16:57:04;;;;;;;14.93;3.30;;;5.60;99.90;;;;;;4862951;29;20144;-88
2023/12/21 16:59:30;;;;;;;14.93;3.00;;;;;;;;;;4862059;29;20443;-89
2023/12/21 17:02:05;;;;;;;19.47;3.30;;;5.50;99.90;;;;;;4864386;29;20068;-88
2023/12/21 17:04:38;;;;;;;19.13;3.13;;;5.30;99.90;;;;;;4863163;29;20091;-88
2023/12/21 17:07:13;;;;;;;26.55;3.10;;;5.30;99.90;;;;;;4868984;29;20101;-88
2023/12/21 17:09:44;;;;;;;20.03;3.37;;;6.50;99.90;;;;;;4881393;29;20096;-88
2023/12/21 17:12:10;;;;;;;17.77;3.40;;;5.50;99.90;;;;;;4864282;29;20132;-88
2023/12/21 17:15:01;;;;;;;;;;;;;;;;;;;;;
2023/12/21 17:17:42;;;;;;;17.60;4.63;;;5.60;99.90;;;;;;4851445;29;20076;-89
2023/12/21 17:20:18;;;;;;;24.70;4.50;;;6.40;99.90;;;;;;4863765;29;20049;-88
2023/12/21 17:22:48;;;;;;;24.40;3.97;;;7.00;99.90;;;;;;4862121;29;20037;-87
2023/12/21 17:25:17;;;;;;;22.13;4.43;;;6.00;99.90;;;;;;4866661;29;20139;-88
2023/12/21 17:27:45;;;;;;;28.47;5.30;;;6.60;99.90;;;;;;4861561;29;20044;-88
2023/12/21 17:30:40;;;;;;;;;;;;;;;;;;;;;
2023/12/21 17:33:26;;;;;;;22.53;3.90;;;4.50;99.90;;;;;;4863888;29;20045;-87
2023/12/21 17:36:06;;;;;;;23.17;4.93;;;5.50;99.90;;;;;;4864244;29;20052;-87
2023/12/21 17:38:43;;;;;;;26.73;4.57;;;6.10;99.90;;;;;;4863539;29;20504;-90
2023/12/21 17:41:27;;;;;;;19.07;3.63;;;6.90;99.90;;;;;;4861635;29;20055;-88
2023/12/21 17:43:53;;;;;;;36.73;8.43;;;6.20;99.90;;;;;;4863150;29;20045;-88
2023/12/21 17:46:26;;;;;;;19.07;3.93;;;8.00;99.90;;;;;;4864755;29;20072;-89
2023/12/21 17:48:55;;;;;;;25.27;4.97;;;6.20;99.90;;;;;;4863930;29;20271;-91